»·PEaware :: JST733 YPAD-YMML

JST733 :: YPAD-YMML

FLIGHT INFORMATION

Flight Status: Arrived
Operator:
Jetstar Airways
More flights by this operator :: More flights under this callsign
Pilot: Merv A. (1555)
Aircraft: AIRBUS A320
(A320)
More flights by this aircraft type
Origin: YPAD Adelaide Intl
Australia
Destination: YMML Melbourne Intl
Australia
More flights between these airports :: More routes between these airports
Route: BENDO2 BENDO Y12 ARBEY ARBEY4A
File this flight plan on PilotEdge
Remarks: RMK / SIMBRIEF
Altitude:
(Current/Filed)
35,000ft
Speed:
(Current/Filed)
450kts
Departed: 04-Jul-19 12:59 AM
Arrived: 04-Jul-19 02:03 AM
Distance/Time
Traveled:
346nm/1:03
Distance/Time
To Go:
Arrived

Flight Plot

Page will automatically refresh every two minutes.

Flight plan parsing failed; only flown route is shown


Map Options




Map Legend


Flown Route
Filed Route
Departure Airport
Arrival Airport
Navaid (VOR, NDB)
Fix

Horizontal Profiles

Position Reports

Time Latitude Longitude Heading Altitude Ground
Speed
04-Jul-19 00:39 -34.941112 138.535959 320 34ft 0kts
04-Jul-19 00:40 -34.941112 138.535959 320 34ft 0kts
04-Jul-19 00:42 -34.941112 138.535959 320 34ft 0kts
04-Jul-19 00:43 -34.941112 138.535959 320 34ft 0kts
04-Jul-19 00:44 -34.941112 138.535959 320 34ft 0kts
04-Jul-19 00:45 -34.941112 138.535959 320 34ft 0kts
04-Jul-19 00:46 -34.941112 138.535959 320 34ft 0kts
04-Jul-19 00:47 -34.941323 138.536170 320 34ft 2kts
04-Jul-19 00:48 -34.941599 138.536446 320 34ft 0kts
04-Jul-19 00:49 -34.941599 138.536446 320 34ft 0kts
04-Jul-19 00:50 -34.941766 138.536235 172 34ft 5kts
04-Jul-19 00:51 -34.943315 138.536070 230 34ft 12kts
04-Jul-19 00:52 -34.944966 138.531946 301 34ft 13kts
04-Jul-19 00:53 -34.945277 138.529299 218 34ft 13kts
04-Jul-19 00:54 -34.949659 138.525203 218 34ft 23kts
04-Jul-19 00:55 -34.953935 138.520455 230 34ft 17kts
04-Jul-19 00:56 -34.956546 138.516642 221 34ft 10kts
04-Jul-19 00:57 -34.957461 138.516432 158 34ft 0kts
04-Jul-19 00:58 -34.958290 138.517348 109 34ft 5kts
04-Jul-19 00:59 -34.956159 138.520619 50 34ft 66kts
04-Jul-19 01:00 -34.932940 138.554365 52 895ft 146kts
04-Jul-19 01:01 -34.943726 138.601155 117 1963ft 203kts
04-Jul-19 01:02 -34.972736 138.672925 113 5114ft 251kts
04-Jul-19 01:02 -34.999729 138.743195 113 7612ft 294kts
04-Jul-19 01:04 -35.041514 138.852929 113 11623ft 316kts
04-Jul-19 01:04 -35.070776 138.936156 108 14056ft 327kts
04-Jul-19 01:06 -35.108747 139.061479 108 16684ft 351kts
04-Jul-19 01:06 -35.136970 139.154654 108 18508ft 361kts
04-Jul-19 01:07 -35.172247 139.271520 108 20510ft 371kts
04-Jul-19 01:08 -35.208399 139.391693 108 22192ft 381kts
04-Jul-19 01:09 -35.245802 139.515086 112 23723ft 391kts
04-Jul-19 01:11 -35.299080 139.659123 114 25428ft 403kts
04-Jul-19 01:11 -35.338268 139.764574 114 26518ft 412kts
04-Jul-19 01:12 -35.386178 139.893840 114 27717ft 421kts
04-Jul-19 01:13 -35.434788 140.025531 114 28892ft 428kts
04-Jul-19 01:14 -35.484158 140.159899 114 29897ft 437kts
04-Jul-19 01:15 -35.534364 140.297162 115 30857ft 445kts
04-Jul-19 01:16 -35.584798 140.435632 115 31768ft 453kts
04-Jul-19 01:17 -35.636697 140.578845 116 32671ft 461kts
04-Jul-19 01:18 -35.689024 140.723941 116 33812ft 462kts
04-Jul-19 01:19 -35.740649 140.867766 116 35098ft 460kts
04-Jul-19 01:20 -35.792654 141.013271 116 35531ft 464kts
04-Jul-19 01:21 -35.844380 141.158720 116 35536ft 462kts
04-Jul-19 01:22 -35.895424 141.302941 116 35539ft 461kts
04-Jul-19 01:23 -35.946529 141.448023 115 35541ft 460kts
04-Jul-19 01:24 -35.997516 141.593462 115 35553ft 460kts
04-Jul-19 01:25 -36.048192 141.738691 115 35556ft 459kts
04-Jul-19 01:26 -36.097723 141.881337 115 35558ft 459kts
04-Jul-19 01:27 -36.147923 142.026580 115 35561ft 459kts
04-Jul-19 01:28 -36.197736 142.172205 114 35571ft 459kts
04-Jul-19 01:29 -36.247426 142.318070 114 35574ft 459kts
04-Jul-19 01:30 -36.296809 142.462991 114 34660ft 453kts
04-Jul-19 01:31 -36.344832 142.604275 113 32233ft 429kts
04-Jul-19 01:32 -36.389444 142.736936 113 30498ft 408kts
04-Jul-19 01:33 -36.432395 142.865060 113 28842ft 396kts
04-Jul-19 01:34 -36.473622 142.990148 113 27245ft 386kts
04-Jul-19 01:35 -36.513953 143.111816 113 25705ft 376kts
04-Jul-19 01:36 -36.552615 143.228499 113 24240ft 367kts
04-Jul-19 01:37 -36.591141 143.345089 113 22783ft 359kts
04-Jul-19 01:38 -36.628595 143.458888 113 21389ft 351kts
04-Jul-19 01:39 -36.665164 143.570434 112 20050ft 344kts
04-Jul-19 01:40 -36.700948 143.680008 112 18757ft 338kts
04-Jul-19 01:41 -36.735957 143.787628 112 17496ft 332kts
04-Jul-19 01:42 -36.770310 143.893614 112 16257ft 327kts
04-Jul-19 01:43 -36.803966 143.997806 112 15035ft 322kts
04-Jul-19 01:44 -36.837300 144.101409 112 13428ft 319kts
04-Jul-19 01:45 -36.869680 144.202452 111 11952ft 304kts
04-Jul-19 01:46 -36.900255 144.298229 111 10841ft 292kts
04-Jul-19 01:47 -36.931859 144.388684 123 10002ft 281kts
04-Jul-19 01:48 -36.981672 144.463010 129 9164ft 277kts
04-Jul-19 01:49 -37.031423 144.534624 129 8134ft 266kts
04-Jul-19 01:50 -37.079737 144.603947 129 7107ft 260kts
04-Jul-19 01:51 -37.127019 144.671896 129 6079ft 258kts
04-Jul-19 01:52 -37.178038 144.731858 162 5040ft 257kts
04-Jul-19 01:53 -37.246919 144.752097 165 3970ft 252kts
04-Jul-19 01:54 -37.313691 144.770169 165 3133ft 231kts
04-Jul-19 01:55 -37.375478 144.783311 169 2555ft 219kts
04-Jul-19 01:56 -37.430807 144.793534 169 2302ft 201kts
04-Jul-19 01:57 -37.485212 144.803605 169 2286ft 201kts
04-Jul-19 01:58 -37.539282 144.813632 169 2354ft 182kts
04-Jul-19 01:59 -37.581003 144.820702 167 2243ft 142kts
04-Jul-19 02:00 -37.619113 144.828201 169 1172ft 137kts
04-Jul-19 02:01 -37.656831 144.835538 171 487ft 136kts
04-Jul-19 02:02 -37.677120 144.839342 171 448ft 32kts
04-Jul-19 02:03 -37.678627 144.841936 82 448ft 3kts
04-Jul-19 02:04 -37.678368 144.843580 49 448ft 8kts
04-Jul-19 02:05 -37.675680 144.843389 351 448ft 9kts
04-Jul-19 02:06 -37.674635 144.844965 81 448ft 6kts
04-Jul-19 02:07 -37.674981 144.846323 172 448ft 4kts
04-Jul-19 02:08 -37.675259 144.846377 171 448ft 0kts
04-Jul-19 02:09 -37.675259 144.846377 171 448ft 0kts
04-Jul-19 02:10 -37.675259 144.846377 171 448ft 0kts

Navigation Log

Ident Type
Flight plan parsing failed, navigation log unavailable